.
WxDataArchive / Data Records for 2012-08-01
2012-07-31 August 2012 2012-08-02

Data Records for Wednesday, 01 August 2012

Time	Temp	Chill	HIndex	Humid	Dewpt	 Wind 	HiWind	WindDir	Rain 	Barom 
-----	----	-----	------	-----	-----	------	------	-------	-----	----- 
00:00	72.3	72.3	72.3	74	63.5	0	1	292	0.00	29.895 
00:05	72.1	72.1	72.1	74	63.3	0	1	292	0.00	29.895 
00:10	72.0	72.0	72.0	74	63.2	0	1	292	0.00	29.895 
00:15	72.0	72.0	72.0	75	63.6	0	1	292	0.00	29.893 
00:20	71.8	71.8	71.8	75	63.4	0	0	---	0.00	29.893 
00:25	71.6	71.6	71.6	76	63.6	0	1	292	0.00	29.893 
00:30	71.5	71.5	71.5	77	63.9	0	0	---	0.00	29.889 
00:35	71.3	71.3	71.3	77	63.7	0	0	---	0.00	29.889 
00:40	71.1	71.1	71.1	78	63.9	0	0	---	0.00	29.889 
00:45	70.9	70.9	70.9	78	63.7	0	1	292	0.00	29.891 
00:50	70.8	70.8	70.8	78	63.6	0	0	---	0.00	29.891 
00:55	70.6	70.6	70.6	79	63.8	0	0	---	0.00	29.891 
01:00	70.4	70.4	70.4	79	63.6	0	0	---	0.00	29.887 
01:05	70.3	70.3	70.3	80	63.8	0	0	---	0.00	29.887 
01:10	70.1	70.1	70.1	80	63.6	0	0	---	0.00	29.887 
01:15	70.1	70.1	70.1	81	64.0	0	0	---	0.00	29.885 
01:20	69.9	69.9	69.9	81	63.8	0	0	---	0.00	29.885 
01:25	69.8	69.8	69.8	82	64.0	0	0	---	0.00	29.885 
01:30	69.6	69.6	69.6	82	63.9	0	0	---	0.00	29.884 
01:35	69.4	69.4	69.4	83	64.0	0	0	---	0.00	29.884 
01:40	69.3	69.3	69.3	83	63.9	0	0	---	0.00	29.884 
01:45	69.1	69.1	69.1	83	63.7	0	0	---	0.00	29.886 
01:50	69.1	69.1	69.1	84	64.1	0	1	292	0.00	29.886 
01:55	68.9	68.9	68.9	84	63.9	0	0	---	0.00	29.886 
02:00	68.8	68.8	68.8	84	63.8	0	0	---	0.00	29.887 
02:05	68.6	68.6	68.6	84	63.6	0	0	---	0.00	29.887 
02:10	68.6	68.6	68.6	85	63.9	0	0	---	0.00	29.887 
02:15	68.4	68.4	68.4	85	63.7	0	0	---	0.00	29.893 
02:20	68.4	68.4	68.4	85	63.7	0	0	---	0.00	29.893 
02:25	68.4	68.4	68.4	86	64.0	0	0	---	0.00	29.893 
02:30	68.3	68.3	68.3	86	63.9	0	0	---	0.00	29.895 
02:35	68.3	68.3	68.3	86	63.9	0	0	---	0.00	29.895 
02:40	68.1	68.1	68.1	87	64.1	0	0	---	0.00	29.895 
02:45	68.1	68.1	68.1	87	64.1	0	0	---	0.00	29.895 
02:50	67.9	67.9	67.9	87	63.9	0	0	---	0.00	29.895 
02:55	67.9	67.9	67.9	87	63.9	0	0	---	0.00	29.895 
03:00	67.8	67.8	67.8	88	64.1	0	0	---	0.00	29.891 
03:05	67.6	67.6	67.6	88	63.9	0	0	---	0.00	29.891 
03:10	67.6	67.6	67.6	88	63.9	0	0	---	0.00	29.891 
03:15	67.6	67.6	67.6	88	63.9	0	0	---	0.00	29.893 
03:20	67.4	67.4	67.4	88	63.7	0	0	---	0.00	29.893 
03:25	67.4	67.4	67.4	88	63.7	0	0	---	0.00	29.893 
03:30	67.3	67.3	67.3	89	63.9	0	0	---	0.00	29.889 
03:35	67.3	67.3	67.3	89	63.9	0	0	---	0.00	29.889 
03:40	67.1	67.1	67.1	89	63.7	0	0	---	0.00	29.889 
03:45	67.1	67.1	67.1	89	63.7	0	0	---	0.00	29.889 
03:50	67.1	67.1	67.1	89	63.7	0	0	---	0.00	29.889 
03:55	67.1	67.1	67.1	89	63.7	0	0	---	0.00	29.889 
04:00	66.9	66.9	66.9	90	63.9	0	0	---	0.00	29.885 
04:05	66.9	66.9	66.9	90	63.9	0	0	---	0.00	29.885 
04:10	66.8	66.8	66.8	90	63.8	0	0	---	0.00	29.885 
04:15	66.8	66.8	66.8	90	63.8	0	0	---	0.00	29.884 
04:20	66.6	66.6	66.6	90	63.6	0	0	---	0.00	29.884 
04:25	66.6	66.6	66.6	90	63.6	0	0	---	0.00	29.884 
04:30	66.4	66.4	66.4	90	63.4	0	0	---	0.00	29.882 
04:35	66.4	66.4	66.4	90	63.4	0	0	---	0.00	29.882 
04:40	66.3	66.3	66.3	91	63.6	0	0	---	0.00	29.882 
04:45	66.3	66.3	66.3	91	63.6	0	0	---	0.00	29.881 
04:50	66.1	66.1	66.1	91	63.4	0	0	---	0.00	29.881 
04:55	66.1	66.1	66.1	91	63.4	0	0	---	0.00	29.881 
05:00	66.0	66.0	66.0	91	63.3	0	0	---	0.00	29.882 
05:05	66.0	66.0	66.0	92	63.6	0	0	---	0.00	29.882 
05:10	65.8	65.8	65.8	92	63.4	0	0	---	0.00	29.882 
05:15	65.8	65.8	65.8	92	63.4	0	0	---	0.00	29.882 
05:20	65.6	65.6	65.6	92	63.2	0	0	---	0.00	29.882 
05:25	65.5	65.5	65.5	92	63.1	0	0	---	0.00	29.882 
05:30	65.5	65.5	65.5	92	63.1	0	0	---	0.00	29.887 
05:35	65.3	65.3	65.3	92	62.9	0	0	---	0.00	29.887 
05:40	65.3	65.3	65.3	92	62.9	0	0	---	0.00	29.887 
05:45	65.3	65.3	65.3	92	62.9	0	0	---	0.00	29.890 
05:50	65.2	65.2	65.2	92	62.8	0	0	---	0.00	29.890 
05:55	65.2	65.2	65.2	92	62.8	0	0	---	0.00	29.890 
06:00	65.0	65.0	65.0	92	62.6	0	0	---	0.00	29.894 
06:05	64.8	64.8	64.8	92	62.4	0	0	---	0.00	29.894 
06:10	64.8	64.8	64.8	93	62.7	0	0	---	0.00	29.894 
06:15	64.8	64.8	64.8	93	62.7	0	0	---	0.00	29.899 
06:20	64.8	64.8	64.8	93	62.7	0	0	---	0.00	29.899 
06:25	64.8	64.8	64.8	93	62.7	0	0	---	0.00	29.899 
06:30	64.8	64.8	64.8	93	62.7	0	0	---	0.00	29.901 
06:35	64.8	64.8	64.8	93	62.7	0	0	---	0.00	29.901 
06:40	64.7	64.7	64.7	93	62.6	0	0	---	0.00	29.901 
06:45	64.5	64.5	64.5	93	62.4	0	0	---	0.00	29.901 
06:50	64.5	64.5	64.5	93	62.4	0	0	---	0.00	29.901 
06:55	64.5	64.5	64.5	93	62.4	0	0	---	0.00	29.901 
07:00	64.5	64.5	64.5	93	62.4	0	0	---	0.00	29.901 
07:05	64.5	64.5	64.5	93	62.4	0	0	---	0.00	29.901 
07:10	64.5	64.5	64.5	93	62.4	0	0	---	0.00	29.901 
07:15	64.5	64.5	64.5	94	62.7	0	0	---	0.00	29.902 
07:20	64.7	64.7	64.7	94	62.9	0	0	---	0.00	29.902 
07:25	64.8	64.8	64.8	94	63.0	0	1	292	0.00	29.902 
07:30	64.8	64.8	64.8	94	63.0	0	0	---	0.00	29.905 
07:35	65.0	65.0	65.0	94	63.2	0	1	292	0.00	29.905 
07:40	65.2	65.2	65.2	94	63.4	0	1	292	0.00	29.905 
07:45	65.3	65.3	65.3	93	63.2	0	2	292	0.00	29.904 
07:50	65.6	65.6	65.6	93	63.5	0	2	292	0.00	29.904 
07:55	65.8	65.8	65.8	93	63.7	0	1	292	0.00	29.904 
08:00	66.1	66.1	66.1	92	63.7	0	1	292	0.00	29.908 
08:05	66.4	66.4	66.4	92	64.0	0	1	292	0.00	29.908 
08:10	66.8	66.8	66.8	91	64.1	0	2	292	0.00	29.908 
08:15	67.3	67.3	67.3	90	64.3	0	1	292	0.00	29.913 
08:20	67.8	67.8	67.8	88	64.1	0	1	292	0.00	29.913 
08:25	68.4	68.4	68.4	86	64.0	0	1	292	0.00	29.913 
08:30	69.3	69.3	69.3	83	63.9	0	1	292	0.00	29.914 
08:35	69.8	69.8	69.8	81	63.7	0	2	158	0.00	29.914 
08:40	69.9	69.9	69.9	79	63.1	0	1	158	0.00	29.914 
08:45	69.9	69.9	69.9	77	62.3	0	2	158	0.00	29.914 
08:50	70.3	70.3	70.3	79	63.5	0	3	135	0.00	29.914 
08:55	70.6	70.6	70.6	77	63.0	0	1	135	0.00	29.914 
09:00	71.3	71.3	71.3	75	63.0	0	3	135	0.00	29.915 
09:05	71.8	71.8	71.8	75	63.4	0	1	135	0.00	29.915 
09:10	72.0	72.0	72.0	74	63.2	0	2	135	0.00	29.915 
09:15	72.8	72.8	72.8	73	63.6	0	2	135	0.00	29.916 
09:20	73.2	73.2	73.2	70	62.8	0	2	135	0.00	29.916 
09:25	73.2	73.2	73.2	70	62.8	1	3	202	0.00	29.916 
09:30	73.5	73.5	73.5	71	63.5	0	2	202	0.00	29.918 
09:35	73.9	73.9	73.9	69	63.1	0	1	202	0.00	29.918 
09:40	74.4	74.4	74.4	68	63.1	0	3	202	0.00	29.918 
09:45	75.3	75.3	77.2	67	63.6	0	1	112	0.00	29.917 
09:50	76.0	76.0	77.8	67	64.2	0	2	112	0.00	29.917 
09:55	76.3	76.3	78.2	63	62.8	0	1	112	0.00	29.917 
10:00	76.1	76.1	78.0	62	62.1	1	4	112	0.00	29.916 
10:05	76.3	76.3	78.1	65	63.6	0	1	112	0.00	29.916 
10:10	76.8	76.8	78.6	62	62.8	0	3	112	0.00	29.916 
10:15	77.2	77.2	78.9	59	61.7	1	4	270	0.00	29.915 
10:20	77.4	77.4	79.2	62	63.3	0	2	270	0.00	29.915 
10:25	77.6	77.6	79.3	61	63.1	1	3	270	0.00	29.915 
10:30	78.1	78.1	79.7	59	62.6	1	4	112	0.00	29.911 
10:35	78.6	78.6	80.1	58	62.6	1	5	112	0.00	29.911 
10:40	79.0	79.0	80.6	59	63.4	0	2	90	0.00	29.911 
10:45	79.4	79.4	80.8	56	62.3	1	3	90	0.00	29.909 
10:50	79.8	79.8	81.1	55	62.2	1	3	90	0.00	29.909 
10:55	79.8	79.8	81.0	54	61.7	1	4	90	0.00	29.909 
11:00	79.6	79.6	80.9	55	62.0	1	2	112	0.00	29.908 
11:05	79.8	79.8	80.9	53	61.1	1	4	112	0.00	29.908 
11:10	79.6	79.6	80.9	55	62.0	1	4	112	0.00	29.908 
11:15	79.6	79.6	80.7	53	60.9	1	4	112	0.00	29.913 
11:20	79.2	79.2	80.4	54	61.1	1	2	90	0.00	29.913 
11:25	79.6	79.6	81.0	56	62.5	1	4	90	0.00	29.913 
11:30	80.3	80.3	81.3	52	61.0	1	4	90	0.00	29.910 
11:35	80.7	80.7	82.0	55	63.0	0	3	90	0.00	29.910 
11:40	80.9	80.9	82.0	53	62.1	0	2	90	0.00	29.910 
11:45	81.1	81.1	82.2	53	62.3	1	2	90	0.00	29.907 
11:50	81.6	81.6	82.5	51	61.7	1	4	90	0.00	29.907 
11:55	82.0	82.0	82.9	51	62.1	1	3	180	0.00	29.907 
12:00	81.4	81.4	82.4	52	62.1	1	3	248	0.00	29.909 
12:05	81.6	81.6	82.9	54	63.3	0	3	90	0.00	29.909 
12:10	81.6	81.6	82.5	51	61.7	1	4	68	0.00	29.909 
12:15	81.4	81.4	82.4	52	62.1	1	4	270	0.00	29.905 
12:20	81.8	81.8	82.7	51	61.9	1	3	270	0.00	29.905 
12:25	81.8	81.8	82.8	52	62.4	1	3	270	0.00	29.905 
12:30	81.8	81.8	82.6	50	61.3	1	3	292	0.00	29.904 
12:35	81.8	81.8	82.4	49	60.7	1	4	292	0.00	29.904 
12:40	81.6	81.6	82.2	49	60.6	1	3	315	0.00	29.904 
12:45	82.0	82.0	82.6	49	60.9	1	3	338	0.00	29.903 
12:50	82.0	82.0	81.9	44	57.9	2	4	292	0.00	29.903 
12:55	82.2	82.2	82.3	45	58.7	1	5	292	0.00	29.903 
13:00	82.4	82.4	82.6	46	59.5	1	5	292	0.00	29.902 
13:05	83.0	83.0	82.8	43	58.2	2	5	112	0.00	29.902 
13:10	83.0	83.0	82.8	43	58.2	2	5	112	0.00	29.902 
13:15	82.6	82.6	82.4	43	57.8	1	3	292	0.00	29.900 
13:20	83.0	83.0	82.3	40	56.2	1	5	292	0.00	29.900 
13:25	83.2	83.2	82.7	41	57.0	2	7	90	0.00	29.900 
13:30	83.6	83.6	83.0	41	57.4	1	4	90	0.00	29.898 
13:35	83.6	83.6	82.4	36	53.8	1	2	90	0.00	29.898 
13:40	83.6	83.6	82.6	38	55.3	2	4	270	0.00	29.898 
13:45	83.4	83.4	82.7	40	56.5	1	3	315	0.00	29.898 
13:50	83.8	83.8	82.4	35	53.2	0	3	292	0.00	29.898 
13:55	84.0	84.0	82.3	33	51.8	1	4	292	0.00	29.898 
14:00	84.0	84.0	82.2	32	50.9	1	3	315	0.00	29.900 
14:05	84.1	84.1	82.2	31	50.2	1	3	315	0.00	29.900 
14:10	84.7	84.7	82.2	26	46.0	1	4	112	0.00	29.900 
14:15	84.5	84.5	82.1	27	46.8	1	4	292	0.00	29.900 
14:20	84.7	84.7	82.1	25	45.0	1	4	292	0.00	29.900 
14:25	84.9	84.9	82.2	24	44.1	1	2	292	0.00	29.900 
14:30	84.9	84.9	82.2	24	44.1	1	4	292	0.00	29.899 
14:35	84.7	84.7	82.1	25	45.0	1	3	270	0.00	29.899 
14:40	84.5	84.5	81.7	21	40.3	1	3	270	0.00	29.899 
14:45	85.3	85.3	82.3	21	40.9	1	5	90	0.00	29.894 
14:50	85.5	85.5	82.8	25	45.6	1	4	90	0.00	29.894 
14:55	85.5	85.5	82.9	26	46.7	1	4	292	0.00	29.894 
15:00	85.3	85.3	82.8	27	47.5	1	3	292	0.00	29.898 
15:05	85.3	85.3	82.8	27	47.5	1	3	292	0.00	29.898 
15:10	85.9	85.9	83.0	24	44.9	1	5	90	0.00	29.898 
15:15	85.9	85.9	83.1	25	46.0	0	2	90	0.00	29.894 
15:20	85.7	85.7	82.9	25	45.8	1	4	90	0.00	29.894 
15:25	85.9	85.9	83.2	26	47.0	0	2	292	0.00	29.894 
15:30	86.1	86.1	83.4	26	47.2	1	3	45	0.00	29.892 
15:35	86.3	86.3	83.6	26	47.3	2	7	68	0.00	29.892 
15:40	86.1	86.1	83.4	26	47.2	1	6	135	0.00	29.892 
15:45	86.1	86.1	83.3	25	46.1	0	2	135	0.00	29.885 
15:50	86.1	86.1	83.2	24	45.1	2	5	292	0.00	29.885 
15:55	86.3	86.3	83.3	23	44.1	1	3	292	0.00	29.885 
16:00	86.3	86.3	83.6	26	47.3	0	3	0	0.00	29.884 
16:05	86.5	86.5	83.6	25	46.5	1	3	292	0.00	29.884 
16:10	86.5	86.5	83.7	26	47.5	1	4	292	0.00	29.884 
16:15	86.7	86.7	83.7	24	45.6	2	6	112	0.00	29.877 
16:20	86.5	86.5	83.7	26	47.5	1	2	112	0.00	29.877 
16:25	86.3	86.3	83.7	27	48.3	1	4	292	0.00	29.877 
16:30	86.7	86.7	83.8	25	46.6	1	3	112	0.00	29.877 
16:35	86.5	86.5	83.6	25	46.5	1	2	112	0.00	29.877 
16:40	86.3	86.3	83.5	25	46.3	1	3	248	0.00	29.877 
16:45	85.9	85.9	83.2	26	47.0	1	5	248	0.00	29.876 
16:50	86.1	86.1	83.4	26	47.2	1	4	180	0.00	29.876 
16:55	86.1	86.1	83.3	25	46.1	1	3	292	0.00	29.876 
17:00	86.3	86.3	83.5	25	46.3	1	5	90	0.00	29.873 
17:05	86.5	86.5	84.0	28	49.5	0	3	90	0.00	29.873 
17:10	86.5	86.5	83.6	25	46.5	0	2	90	0.00	29.873 
17:15	86.1	86.1	83.6	28	49.1	1	4	292	0.00	29.876 
17:20	85.7	85.7	83.1	27	47.8	1	5	112	0.00	29.876 
17:25	85.5	85.5	83.0	27	47.7	1	3	315	0.00	29.876 
17:30	85.5	85.5	83.1	28	48.6	1	4	292	0.00	29.873 
17:35	85.3	85.3	82.7	26	46.5	1	3	292	0.00	29.873 
17:40	85.1	85.1	82.7	28	48.3	1	3	292	0.00	29.873 
17:45	85.1	85.1	82.7	28	48.3	1	4	292	0.00	29.874 
17:50	84.9	84.9	82.6	28	48.1	1	3	292	0.00	29.874 
17:55	84.9	84.9	82.7	29	49.1	1	3	292	0.00	29.874 
18:00	84.9	84.9	82.7	29	49.1	0	3	22	0.00	29.873 
18:05	84.7	84.7	82.4	28	48.0	1	4	315	0.00	29.873 
18:10	84.5	84.5	82.1	27	46.8	0	2	315	0.00	29.873 
18:15	84.3	84.3	82.0	27	46.6	1	3	315	0.00	29.874 
18:20	84.3	84.3	82.0	27	46.6	1	3	315	0.00	29.874 
18:25	84.3	84.3	82.1	28	47.6	1	4	338	0.00	29.874 
18:30	84.1	84.1	82.0	29	48.4	0	2	338	0.00	29.871 
18:35	84.0	84.0	82.0	30	49.2	1	6	90	0.00	29.871 
18:40	83.8	83.8	81.9	31	49.9	0	2	45	0.00	29.871 
18:45	83.8	83.8	81.8	30	49.0	1	3	292	0.00	29.869 
18:50	83.8	83.8	81.7	29	48.1	1	3	292	0.00	29.869 
18:55	83.8	83.8	81.7	29	48.1	1	3	292	0.00	29.869 
19:00	83.8	83.8	81.9	31	49.9	1	4	292	0.00	29.870 
19:05	83.6	83.6	81.8	31	49.7	0	3	292	0.00	29.870 
19:10	83.4	83.4	81.7	32	50.4	0	1	158	0.00	29.870 
19:15	83.2	83.2	81.7	33	51.1	0	2	158	0.00	29.867 
19:20	83.2	83.2	81.5	31	49.4	1	3	292	0.00	29.867 
19:25	83.0	83.0	81.5	33	50.9	0	1	292	0.00	29.867 
19:30	82.8	82.8	81.3	33	50.7	0	1	292	0.00	29.870 
19:35	82.6	82.6	81.3	34	51.4	0	1	292	0.00	29.870 
19:40	82.6	82.6	81.4	35	52.1	0	2	292	0.00	29.870 
19:45	82.4	82.4	81.2	35	52.0	0	3	292	0.00	29.870 
19:50	82.2	82.2	81.0	34	51.0	0	2	292	0.00	29.870 
19:55	82.0	82.0	80.9	35	51.6	0	1	292	0.00	29.870 
20:00	81.8	81.8	80.8	35	51.4	0	1	292	0.00	29.864 
20:05	81.4	81.4	80.7	37	52.6	0	1	292	0.00	29.864 
20:10	81.1	81.1	80.4	37	52.3	0	1	292	0.00	29.864 
20:15	80.7	80.7	80.3	39	53.4	0	0	---	0.00	29.860 
20:20	80.5	80.5	80.3	40	53.9	0	0	---	0.00	29.860 
20:25	80.1	80.1	80.0	40	53.6	0	1	292	0.00	29.860 
20:30	79.8	79.8	79.9	41	54.0	0	0	---	0.00	29.861 
20:35	79.4	79.4	79.6	41	53.6	0	0	---	0.00	29.861 
20:40	79.2	79.2	79.5	42	54.1	0	0	---	0.00	29.861 
20:45	78.8	78.8	79.4	43	54.4	0	0	---	0.00	29.860 
20:50	78.5	78.5	79.2	43	54.1	0	0	---	0.00	29.860 
20:55	77.9	77.9	78.9	44	54.2	0	0	---	0.00	29.860 
21:00	77.6	77.6	78.8	45	54.6	0	0	---	0.00	29.862 
21:05	77.2	77.2	78.5	45	54.2	0	0	---	0.00	29.862 
21:10	76.8	76.8	78.4	46	54.4	0	0	---	0.00	29.862 
21:15	76.5	76.5	78.3	47	54.7	0	0	---	0.00	29.853 
21:20	75.8	75.8	78.0	48	54.7	0	0	---	0.00	29.853 
21:25	75.3	75.3	77.7	49	54.8	0	0	---	0.00	29.853 
21:30	74.7	74.7	74.7	50	54.8	0	0	---	0.00	29.862 
21:35	74.2	74.2	74.2	52	55.4	0	0	---	0.00	29.862 
21:40	73.9	73.9	73.9	52	55.1	0	0	---	0.00	29.862 
21:45	73.5	73.5	73.5	54	55.8	0	0	---	0.00	29.868 
21:50	73.0	73.0	73.0	54	55.4	0	0	---	0.00	29.868 
21:55	72.5	72.5	72.5	56	55.9	0	0	---	0.00	29.868 
22:00	72.1	72.1	72.1	57	56.0	0	0	---	0.00	29.880 
22:05	71.8	71.8	71.8	58	56.2	0	0	---	0.00	29.880 
22:10	71.6	71.6	71.6	59	56.5	0	0	---	0.00	29.880 
22:15	71.3	71.3	71.3	59	56.2	0	0	---	0.00	29.878 
22:20	71.1	71.1	71.1	61	57.0	0	0	---	0.00	29.878 
22:25	70.8	70.8	70.8	61	56.7	0	0	---	0.00	29.878 
22:30	70.4	70.4	70.4	62	56.7	0	0	---	0.00	29.876 
22:35	70.3	70.3	70.3	62	56.7	0	0	---	0.00	29.876 
22:40	69.9	69.9	69.9	62	56.3	0	0	---	0.00	29.876 
22:45	69.6	69.6	69.6	62	56.0	0	0	---	0.00	29.870 
22:50	69.4	69.4	69.4	63	56.2	0	0	---	0.00	29.870 
22:55	69.1	69.1	69.1	64	56.4	0	0	---	0.00	29.870 
23:00	68.9	68.9	68.9	64	56.2	0	0	---	0.00	29.883 
23:05	68.8	68.8	68.8	65	56.5	0	0	---	0.00	29.883 
23:10	68.6	68.6	68.6	66	56.8	0	0	---	0.00	29.883 
23:15	68.4	68.4	68.4	67	57.0	0	0	---	0.00	29.878 
23:20	68.1	68.1	68.1	67	56.7	0	0	---	0.00	29.878 
23:25	67.8	67.8	67.8	68	56.8	0	0	---	0.00	29.878 
23:30	67.6	67.6	67.6	68	56.7	0	0	---	0.00	29.870 
23:35	67.3	67.3	67.3	69	56.8	0	0	---	0.00	29.870 
23:40	67.1	67.1	67.1	70	57.0	0	0	---	0.00	29.870 
23:45	67.1	67.1	67.1	70	57.0	0	0	---	0.00	29.884 
23:50	66.9	66.9	66.9	71	57.2	0	0	---	0.00	29.884 
23:55	66.9	66.9	66.9	72	57.6	0	0	---	0.00	29.884 

CoCoRaHS
IN-AL-39
A2 Web Hosting
Creative Commons License
GoDaddy
search engine by freefind advanced

loaded 2018-11-16 11:29:43 • last modified 2010-11-18 10:43:29
Privacy PolicyDisclaimer
• wx.awcolley.com is powered by PmWiki v.2002016 •
• all content (unless otherwise noted) © 2018 A W Colley